createdAt,value
2019-04-16T00:00:25.562Z,99.90
2019-04-16T00:03:23.041Z,99.90
2019-04-16T00:06:26.983Z,99.90
2019-04-16T00:09:36.002Z,99.90
2019-04-16T00:12:45.379Z,99.90
2019-04-16T00:15:42.091Z,99.90
2019-04-16T00:18:38.967Z,99.90
2019-04-16T00:21:57.466Z,99.90
2019-04-16T00:24:55.461Z,99.90
2019-04-16T00:27:51.648Z,99.90
2019-04-16T00:30:47.612Z,99.90
2019-04-16T00:33:43.696Z,99.90
2019-04-16T00:36:40.543Z,99.90
2019-04-16T00:39:36.283Z,99.90
2019-04-16T00:42:33.007Z,99.90
2019-04-16T00:45:29.790Z,99.90
2019-04-16T00:48:25.764Z,99.90
2019-04-16T00:51:22.124Z,99.90
2019-04-16T00:54:18.103Z,99.90
2019-04-16T00:57:17.662Z,99.90
2019-04-16T01:00:12.336Z,99.90
2019-04-16T01:03:08.744Z,99.90
2019-04-16T01:06:07.986Z,99.90
2019-04-16T01:09:01.926Z,99.90
2019-04-16T01:11:59.721Z,99.90
2019-04-16T01:14:59.599Z,99.90
2019-04-16T01:17:53.994Z,99.90
2019-04-16T01:20:49.749Z,99.90
2019-04-16T01:23:48.311Z,99.90
2019-04-16T01:26:44.409Z,99.90
2019-04-16T01:29:39.930Z,99.90
2019-04-16T01:32:58.831Z,99.90
2019-04-16T01:36:04.090Z,99.90
2019-04-16T01:39:14.791Z,99.90
2019-04-16T01:42:00.779Z,99.90
2019-04-16T01:44:59.389Z,99.90
2019-04-16T01:47:57.771Z,99.90
2019-04-16T01:50:54.487Z,99.90
2019-04-16T01:53:52.369Z,99.90
2019-04-16T01:56:46.807Z,99.90
2019-04-16T01:59:43.041Z,99.90
2019-04-16T02:02:39.047Z,99.90
2019-04-16T02:05:35.638Z,99.90
2019-04-16T02:08:31.847Z,99.90
2019-04-16T02:11:26.798Z,99.90
2019-04-16T02:14:22.359Z,99.90
2019-04-16T02:17:18.332Z,99.90
2019-04-16T02:20:13.913Z,99.90
2019-04-16T02:23:10.120Z,99.90
2019-04-16T02:26:06.292Z,99.90
2019-04-16T02:29:01.914Z,99.90
2019-04-16T02:31:58.703Z,99.90
2019-04-16T02:34:55.066Z,99.90
2019-04-16T02:37:50.369Z,99.90
2019-04-16T02:40:51.374Z,99.90
2019-04-16T02:43:42.772Z,99.90
2019-04-16T02:46:38.668Z,99.90
2019-04-16T02:49:34.938Z,99.90
2019-04-16T02:52:51.197Z,99.90
2019-04-16T02:56:17.032Z,99.90
2019-04-16T02:59:14.038Z,99.90
2019-04-16T03:02:22.653Z,99.90
2019-04-16T03:05:21.646Z,99.90
2019-04-16T03:08:17.234Z,99.90
2019-04-16T03:11:13.805Z,99.90
2019-04-16T03:14:11.467Z,99.90
2019-04-16T03:17:26.115Z,99.90
2019-04-16T03:20:23.993Z,99.90
2019-04-16T03:23:20.785Z,99.90
2019-04-16T03:26:18.061Z,99.90
2019-04-16T03:29:14.630Z,99.90
2019-04-16T03:32:13.441Z,99.90
2019-04-16T03:35:07.989Z,99.90
2019-04-16T03:38:06.209Z,99.90
2019-04-16T03:41:03.528Z,99.90
2019-04-16T03:44:03.646Z,99.90
2019-04-16T03:46:57.693Z,99.90
2019-04-16T03:49:53.445Z,99.90
2019-04-16T03:52:48.462Z,99.90
2019-04-16T03:55:46.500Z,99.90
2019-04-16T03:58:43.040Z,99.90
2019-04-16T04:01:45.501Z,99.90
2019-04-16T04:04:44.625Z,99.90
2019-04-16T04:07:43.843Z,99.90
2019-04-16T04:10:38.212Z,99.90
2019-04-16T04:13:33.309Z,99.90
2019-04-16T04:16:30.582Z,99.90
2019-04-16T04:19:26.533Z,99.90
2019-04-16T04:22:22.810Z,99.90
2019-04-16T04:25:19.192Z,99.90
2019-04-16T04:28:18.462Z,99.90
2019-04-16T04:31:12.324Z,99.90
2019-04-16T04:34:10.067Z,99.90
2019-04-16T04:37:05.003Z,99.90
2019-04-16T04:40:00.534Z,99.90
2019-04-16T04:42:57.658Z,99.90
2019-04-16T04:45:55.054Z,99.90
2019-04-16T04:48:55.025Z,99.90
2019-04-16T04:51:49.865Z,99.90
2019-04-16T04:54:45.878Z,99.90
2019-04-16T04:57:42.093Z,99.90
2019-04-16T05:00:40.519Z,99.90
2019-04-16T05:04:13.158Z,99.90
2019-04-16T05:07:10.029Z,99.90
2019-04-16T05:10:08.462Z,99.90
2019-04-16T05:13:05.764Z,99.90
2019-04-16T05:16:02.791Z,99.90
2019-04-16T05:18:59.686Z,99.90
2019-04-16T05:21:57.109Z,99.90
2019-04-16T05:24:52.727Z,99.90
2019-04-16T05:27:48.216Z,99.90
2019-04-16T05:30:43.956Z,99.90
2019-04-16T05:33:43.531Z,99.90
2019-04-16T05:36:46.557Z,99.90
2019-04-16T05:39:39.242Z,99.90
2019-04-16T05:42:35.560Z,99.90
2019-04-16T05:45:34.555Z,99.90
2019-04-16T05:48:29.613Z,99.90
2019-04-16T05:51:25.032Z,99.90
2019-04-16T05:54:41.539Z,99.90
2019-04-16T05:57:39.786Z,99.90
2019-04-16T06:00:47.203Z,99.90
2019-04-16T06:03:43.264Z,99.90
2019-04-16T06:06:41.246Z,99.90
2019-04-16T06:09:36.758Z,99.90
2019-04-16T06:12:52.363Z,99.90
2019-04-16T06:16:01.200Z,99.90
2019-04-16T06:19:25.611Z,99.90
2019-04-16T06:22:47.323Z,99.90
2019-04-16T06:25:54.159Z,99.90
2019-04-16T06:29:03.993Z,99.90
2019-04-16T06:32:10.864Z,99.90
2019-04-16T06:35:27.912Z,99.90
2019-04-16T06:38:26.733Z,99.90
2019-04-16T06:41:57.308Z,99.90
2019-04-16T06:44:54.865Z,99.90
2019-04-16T06:48:02.035Z,99.90
2019-04-16T06:51:14.547Z,99.90
2019-04-16T06:54:34.963Z,99.90
2019-04-16T06:57:49.240Z,97.80
2019-04-16T07:00:56.122Z,95.00
2019-04-16T07:03:58.478Z,93.30
2019-04-16T07:07:09.531Z,92.00
2019-04-16T07:10:12.441Z,90.40
2019-04-16T07:13:11.141Z,88.60
2019-04-16T07:16:06.165Z,80.10
2019-04-16T07:19:01.885Z,77.50
2019-04-16T07:21:57.894Z,75.50
2019-04-16T07:25:03.374Z,74.30
2019-04-16T07:28:06.758Z,72.90
2019-04-16T07:31:14.863Z,69.20
2019-04-16T07:34:27.353Z,67.50
2019-04-16T07:37:50.348Z,66.60
2019-04-16T07:41:11.028Z,65.60
2019-04-16T07:44:11.358Z,63.20
2019-04-16T07:47:22.518Z,58.30
2019-04-16T07:50:39.760Z,56.20
2019-04-16T07:53:53.628Z,55.30
2019-04-16T07:56:51.379Z,54.90
2019-04-16T07:59:47.484Z,50.20
2019-04-16T08:02:42.858Z,50.50
2019-04-16T08:05:41.199Z,49.40
2019-04-16T08:08:37.330Z,48.80
2019-04-16T08:11:32.851Z,49.00
2019-04-16T08:14:28.138Z,50.90
2019-04-16T08:17:24.458Z,49.70
2019-04-16T08:20:21.349Z,49.30
2019-04-16T08:23:45.004Z,49.50
2019-04-16T08:26:41.629Z,48.10
2019-04-16T08:29:37.171Z,47.50
2019-04-16T08:32:32.567Z,47.40
2019-04-16T08:35:28.905Z,47.60
2019-04-16T08:38:26.185Z,46.90
2019-04-16T08:41:21.929Z,47.20
2019-04-16T08:44:20.861Z,45.90
2019-04-16T08:47:17.015Z,43.20
2019-04-16T08:50:13.204Z,43.30
2019-04-16T08:53:13.313Z,42.70
2019-04-16T08:56:09.716Z,42.80
2019-04-16T08:59:09.532Z,41.80
2019-04-16T09:02:03.059Z,42.00
2019-04-16T09:04:58.484Z,41.90
2019-04-16T09:07:56.430Z,40.80
2019-04-16T09:10:52.900Z,39.00
2019-04-16T09:13:53.508Z,38.80
2019-04-16T09:17:05.371Z,37.20
2019-04-16T09:20:11.977Z,35.50
2019-04-16T09:23:07.796Z,36.50
2019-04-16T09:26:23.946Z,37.10
2019-04-16T09:29:39.191Z,36.00
2019-04-16T09:33:01.270Z,36.20
2019-04-16T09:36:08.216Z,35.20
2019-04-16T09:39:14.795Z,36.20
2019-04-16T09:42:11.223Z,36.10
2019-04-16T09:45:09.012Z,36.20
2019-04-16T09:48:05.336Z,36.10
2019-04-16T09:51:01.485Z,35.10
2019-04-16T09:53:57.281Z,35.30
2019-04-16T09:56:52.574Z,35.30
2019-04-16T09:59:58.973Z,33.90
2019-04-16T10:02:56.819Z,32.80
2019-04-16T10:05:52.209Z,32.90
2019-04-16T10:08:48.561Z,33.60
2019-04-16T10:11:44.700Z,34.60
2019-04-16T10:14:40.667Z,33.80
2019-04-16T10:17:36.694Z,33.70
2019-04-16T10:20:32.238Z,34.90
2019-04-16T10:23:35.023Z,34.30
2019-04-16T10:26:30.487Z,32.70
2019-04-16T10:29:26.584Z,32.80
2019-04-16T10:32:23.058Z,32.30
2019-04-16T10:35:18.698Z,32.00
2019-04-16T10:38:38.682Z,33.70
2019-04-16T10:41:59.379Z,31.70
2019-04-16T10:45:04.203Z,30.70
2019-04-16T10:48:21.906Z,31.50
2019-04-16T10:51:39.238Z,32.40
2019-04-16T10:54:44.710Z,32.60
2019-04-16T10:57:58.626Z,32.10
2019-04-16T11:01:02.384Z,32.40
2019-04-16T11:04:10.896Z,31.90
2019-04-16T11:07:13.979Z,29.90
2019-04-16T11:10:11.879Z,30.20
2019-04-16T11:13:10.964Z,29.90
2019-04-16T11:16:13.939Z,30.60
2019-04-16T11:19:09.483Z,30.60
2019-04-16T11:22:05.958Z,31.50
2019-04-16T11:25:03.041Z,32.10
2019-04-16T11:27:59.076Z,31.40
2019-04-16T11:30:57.062Z,31.00
2019-04-16T11:33:52.368Z,29.30
2019-04-16T11:36:48.937Z,31.10
2019-04-16T11:39:46.833Z,32.30
2019-04-16T11:42:44.253Z,31.00
2019-04-16T11:45:39.728Z,32.30
2019-04-16T11:48:37.488Z,30.90
2019-04-16T11:51:34.193Z,30.50
2019-04-16T11:54:30.700Z,30.30
2019-04-16T11:57:26.035Z,29.30
2019-04-16T12:00:46.504Z,29.60
2019-04-16T12:03:48.370Z,29.80
2019-04-16T12:06:55.458Z,29.90
2019-04-16T12:10:09.825Z,30.40
2019-04-16T12:13:24.421Z,31.60
2019-04-16T12:16:55.288Z,30.80
2019-04-16T12:20:20.965Z,30.20
2019-04-16T12:23:38.631Z,28.10
2019-04-16T12:26:58.787Z,29.50
2019-04-16T12:30:20.521Z,29.70
2019-04-16T12:33:21.684Z,30.40
2019-04-16T12:36:36.265Z,28.20
2019-04-16T12:39:37.066Z,29.00
2019-04-16T12:42:42.899Z,28.10
2019-04-16T12:45:53.172Z,27.90
2019-04-16T12:49:06.130Z,28.50
2019-04-16T12:52:22.132Z,28.30
2019-04-16T12:55:53.004Z,29.00
2019-04-16T12:58:52.898Z,28.20
2019-04-16T13:02:15.709Z,28.60
2019-04-16T13:05:21.821Z,27.90
2019-04-16T13:08:37.061Z,28.00
2019-04-16T13:11:36.660Z,27.90
2019-04-16T13:15:01.058Z,26.70
2019-04-16T13:18:23.275Z,28.10
2019-04-16T13:21:24.761Z,27.00
2019-04-16T13:24:29.271Z,26.20
2019-04-16T13:27:29.439Z,26.60
2019-04-16T13:30:24.714Z,25.60
2019-04-16T13:33:21.849Z,26.10
2019-04-16T13:36:16.899Z,26.60
2019-04-16T13:39:40.427Z,26.60
2019-04-16T13:42:48.563Z,26.70
2019-04-16T13:45:43.927Z,27.00
2019-04-16T13:48:47.947Z,27.10
2019-04-16T13:51:44.963Z,27.30
2019-04-16T13:55:08.422Z,28.00
2019-04-16T13:58:14.658Z,28.10
2019-04-16T14:01:27.293Z,28.30
2019-04-16T14:04:23.687Z,29.00
2019-04-16T14:07:20.176Z,28.20
2019-04-16T14:10:15.814Z,28.90
2019-04-16T14:13:14.307Z,29.00
2019-04-16T14:16:12.927Z,28.60
2019-04-16T14:19:09.342Z,29.10
2019-04-16T14:22:04.688Z,29.80
2019-04-16T14:24:59.976Z,30.00
2019-04-16T14:28:01.949Z,29.60
2019-04-16T14:30:53.921Z,32.70
2019-04-16T14:33:59.781Z,30.60
2019-04-16T14:36:57.063Z,31.50
2019-04-16T14:40:01.813Z,30.30
2019-04-16T14:43:00.242Z,30.20
2019-04-16T14:45:59.774Z,30.80
2019-04-16T14:48:53.795Z,30.90
2019-04-16T14:51:50.270Z,32.30
2019-04-16T14:55:04.199Z,31.80
2019-04-16T14:58:06.883Z,32.20
2019-04-16T15:01:20.637Z,31.40
2019-04-16T15:04:35.370Z,32.40
2019-04-16T15:07:38.994Z,31.70
2019-04-16T15:10:52.249Z,32.20
2019-04-16T15:14:00.642Z,32.20
2019-04-16T15:17:14.856Z,31.70
2019-04-16T15:20:20.465Z,33.00
2019-04-16T15:23:22.525Z,33.10
2019-04-16T15:26:44.189Z,34.30
2019-04-16T15:29:49.486Z,34.70
2019-04-16T15:33:13.254Z,36.70
2019-04-16T15:36:19.441Z,36.30
2019-04-16T15:39:22.907Z,38.50
2019-04-16T15:42:28.448Z,39.00
2019-04-16T15:45:32.448Z,39.70
2019-04-16T15:48:53.505Z,39.30
2019-04-16T15:52:14.360Z,40.10
2019-04-16T15:55:37.865Z,40.60
2019-04-16T15:58:58.335Z,40.90
2019-04-16T16:02:11.903Z,40.70
2019-04-16T16:05:14.875Z,40.70
2019-04-16T16:08:26.950Z,41.20
2019-04-16T16:11:31.232Z,41.90
2019-04-16T16:14:33.175Z,42.20
2019-04-16T16:17:24.286Z,41.60
2019-04-16T16:20:19.781Z,41.70
2019-04-16T16:23:15.069Z,42.00
2019-04-16T16:26:30.780Z,41.80
2019-04-16T16:29:25.246Z,42.30
2019-04-16T16:32:21.785Z,42.00
2019-04-16T16:35:21.236Z,42.50
2019-04-16T16:38:20.536Z,43.20
2019-04-16T16:41:14.491Z,43.00
2019-04-16T16:44:10.313Z,43.40
2019-04-16T16:47:32.736Z,43.30
2019-04-16T16:50:28.841Z,43.40
2019-04-16T16:53:34.437Z,43.40
2019-04-16T16:56:50.333Z,43.10
2019-04-16T17:00:23.494Z,43.20
2019-04-16T17:03:39.823Z,43.70
2019-04-16T17:06:36.962Z,43.50
2019-04-16T17:09:35.162Z,44.90
2019-04-16T17:12:35.071Z,44.80
2019-04-16T17:15:32.060Z,44.60
2019-04-16T17:18:31.767Z,44.10
2019-04-16T17:21:54.194Z,43.60
2019-04-16T17:24:57.579Z,44.20
2019-04-16T17:27:54.996Z,44.70
2019-04-16T17:30:56.121Z,44.60
2019-04-16T17:33:56.390Z,44.30
2019-04-16T17:36:53.851Z,44.80
2019-04-16T17:40:22.254Z,45.00
2019-04-16T17:43:24.573Z,45.40
2019-04-16T17:46:40.845Z,45.60
2019-04-16T17:50:03.735Z,46.10
2019-04-16T17:53:15.738Z,46.20
2019-04-16T17:56:31.866Z,46.10
2019-04-16T18:00:08.819Z,46.00
2019-04-16T18:03:43.202Z,46.90
2019-04-16T18:06:58.973Z,47.50
2019-04-16T18:11:09.720Z,47.20
2019-04-16T18:14:14.789Z,46.80
2019-04-16T18:17:46.813Z,46.60
2019-04-16T18:21:15.832Z,46.70
2019-04-16T18:24:27.758Z,47.10
2019-04-16T18:28:25.015Z,47.00
2019-04-16T18:31:37.629Z,47.20
2019-04-16T18:34:43.420Z,47.30
2019-04-16T18:38:03.654Z,48.00
2019-04-16T18:41:35.140Z,48.50
2019-04-16T18:44:58.102Z,48.10
2019-04-16T18:48:12.031Z,49.10
2019-04-16T18:51:04.527Z,48.60
2019-04-16T18:54:00.682Z,48.30
2019-04-16T18:56:56.880Z,48.90
2019-04-16T18:59:53.319Z,48.50
2019-04-16T19:02:49.947Z,49.00
2019-04-16T19:05:45.688Z,49.20
2019-04-16T19:08:42.549Z,50.00
2019-04-16T19:11:39.471Z,48.80
2019-04-16T19:14:39.480Z,48.90
2019-04-16T19:17:41.719Z,49.00
2019-04-16T19:20:51.877Z,50.00
2019-04-16T19:23:49.880Z,49.80
2019-04-16T19:26:57.504Z,51.10
2019-04-16T19:29:54.234Z,51.20
2019-04-16T19:32:54.403Z,51.00
2019-04-16T19:35:56.695Z,51.20
2019-04-16T19:39:15.201Z,53.50
2019-04-16T19:42:16.091Z,54.10
2019-04-16T19:45:40.672Z,55.00
2019-04-16T19:49:09.853Z,54.90
2019-04-16T19:52:17.318Z,53.30
2019-04-16T19:55:14.104Z,54.90
2019-04-16T19:58:10.458Z,53.80
2019-04-16T20:01:11.715Z,52.50
2019-04-16T20:04:09.263Z,52.10
2019-04-16T20:07:15.633Z,52.20
2019-04-16T20:10:12.133Z,52.20
2019-04-16T20:13:08.915Z,52.10
2019-04-16T20:16:05.600Z,53.50
2019-04-16T20:19:02.555Z,55.00
2019-04-16T20:21:59.587Z,55.50
2019-04-16T20:24:56.545Z,56.00
2019-04-16T20:27:52.755Z,56.80
2019-04-16T20:30:49.396Z,57.80
2019-04-16T20:33:45.177Z,55.60
2019-04-16T20:36:41.850Z,57.70
2019-04-16T20:39:40.760Z,57.60
2019-04-16T20:42:36.463Z,59.30
2019-04-16T20:45:32.593Z,59.50
2019-04-16T20:48:28.833Z,60.40
2019-04-16T20:51:26.598Z,59.40
2019-04-16T20:54:25.093Z,62.10
2019-04-16T20:57:25.289Z,61.60
2019-04-16T21:00:26.382Z,63.70
2019-04-16T21:03:22.998Z,65.00
2019-04-16T21:06:20.189Z,66.60
2019-04-16T21:09:16.962Z,67.50
2019-04-16T21:12:14.549Z,70.90
2019-04-16T21:15:11.848Z,72.30
2019-04-16T21:18:11.885Z,74.50
2019-04-16T21:21:05.593Z,79.40
2019-04-16T21:24:07.088Z,83.70
2019-04-16T21:27:01.241Z,89.20
2019-04-16T21:29:57.276Z,91.00
2019-04-16T21:33:22.077Z,93.40
2019-04-16T21:36:28.855Z,94.90
2019-04-16T21:39:29.905Z,96.80
2019-04-16T21:42:26.551Z,98.60
2019-04-16T21:45:24.315Z,99.90
2019-04-16T21:48:23.913Z,99.90
2019-04-16T21:51:19.681Z,99.90
2019-04-16T21:54:16.106Z,99.90
2019-04-16T21:57:13.308Z,99.90
2019-04-16T22:00:15.607Z,99.90
2019-04-16T22:03:14.770Z,99.90
2019-04-16T22:06:10.613Z,99.90
2019-04-16T22:09:07.992Z,99.90
2019-04-16T22:12:05.225Z,99.90
2019-04-16T22:15:01.962Z,99.90
2019-04-16T22:17:57.702Z,99.90
2019-04-16T22:20:53.745Z,99.90
2019-04-16T22:23:51.076Z,99.90
2019-04-16T22:26:47.738Z,99.90
2019-04-16T22:29:47.258Z,99.90
2019-04-16T22:32:41.373Z,99.90
2019-04-16T22:35:38.157Z,99.90
2019-04-16T22:38:37.688Z,99.90
2019-04-16T22:41:52.539Z,99.90
2019-04-16T22:45:06.637Z,99.90
2019-04-16T22:48:03.647Z,99.90
2019-04-16T22:51:00.168Z,99.90
2019-04-16T22:53:56.606Z,99.90
2019-04-16T22:57:01.979Z,99.90
2019-04-16T22:59:57.216Z,99.90
2019-04-16T23:02:52.859Z,99.90
2019-04-16T23:05:48.880Z,99.90
2019-04-16T23:08:46.445Z,99.90
2019-04-16T23:11:42.965Z,99.90
2019-04-16T23:14:39.421Z,99.90
2019-04-16T23:17:35.736Z,99.90
2019-04-16T23:20:35.996Z,99.90
2019-04-16T23:23:29.347Z,99.90
2019-04-16T23:26:25.064Z,99.90
2019-04-16T23:29:22.116Z,99.90
2019-04-16T23:32:17.662Z,99.90
2019-04-16T23:35:14.372Z,99.90
2019-04-16T23:38:10.710Z,99.90
2019-04-16T23:41:07.330Z,99.90
2019-04-16T23:44:29.707Z,99.90
2019-04-16T23:47:44.258Z,99.90
2019-04-16T23:51:00.271Z,99.90
2019-04-16T23:54:00.694Z,99.90
2019-04-16T23:57:21.611Z,99.90
